createdAt,value
2023-01-19T00:00:21.092Z,47.97
2023-01-19T00:03:16.276Z,44.95
2023-01-19T00:05:44.734Z,41.65
2023-01-19T00:08:17.755Z,42.33
2023-01-19T00:10:47.776Z,43.45
2023-01-19T00:13:16.860Z,47.75
2023-01-19T00:15:45.089Z,42.80
2023-01-19T00:18:13.299Z,46.58
2023-01-19T00:20:41.801Z,41.80
2023-01-19T00:23:10.142Z,39.22
2023-01-19T00:25:42.429Z,43.88
2023-01-19T00:28:11.293Z,41.33
2023-01-19T00:30:39.435Z,36.97
2023-01-19T00:33:07.628Z,43.85
2023-01-19T00:35:35.775Z,43.78
2023-01-19T00:38:04.551Z,44.30
2023-01-19T00:40:32.534Z,45.45
2023-01-19T00:43:03.238Z,47.10
2023-01-19T00:45:31.925Z,42.35
2023-01-19T00:48:00.193Z,45.00
2023-01-19T00:50:29.816Z,42.97
2023-01-19T00:53:01.085Z,37.33
2023-01-19T00:55:29.900Z,41.57
2023-01-19T00:57:58.545Z,38.00
2023-01-19T01:00:27.983Z,41.58
2023-01-19T01:02:56.491Z,38.22
2023-01-19T01:05:24.591Z,40.85
2023-01-19T01:07:52.804Z,42.03
2023-01-19T01:10:22.852Z,39.92
2023-01-19T01:12:56.083Z,42.38
2023-01-19T01:15:28.153Z,39.85
2023-01-19T01:17:56.927Z,43.92
2023-01-19T01:20:27.650Z,41.28
2023-01-19T01:22:57.741Z,44.15
2023-01-19T01:25:27.521Z,37.50
2023-01-19T01:27:56.077Z,38.80
2023-01-19T01:30:24.549Z,35.67
2023-01-19T01:32:54.190Z,39.20
2023-01-19T01:35:22.139Z,41.30
2023-01-19T01:37:50.353Z,43.42
2023-01-19T01:40:19.546Z,44.00
2023-01-19T01:42:48.223Z,43.05
2023-01-19T01:45:29.893Z,41.63
2023-01-19T01:48:06.226Z,45.13
2023-01-19T01:50:36.414Z,37.33
2023-01-19T01:53:08.499Z,39.92
2023-01-19T01:55:40.182Z,38.95
2023-01-19T01:58:09.117Z,33.67
2023-01-19T02:00:51.136Z,39.38
2023-01-19T02:03:21.159Z,42.83
2023-01-19T02:05:49.247Z,43.83
2023-01-19T02:08:38.638Z,49.03
2023-01-19T02:11:25.001Z,44.42
2023-01-19T02:13:53.343Z,42.53
2023-01-19T02:16:21.390Z,44.70
2023-01-19T02:18:50.989Z,46.83
2023-01-19T02:21:21.144Z,54.05
2023-01-19T02:23:52.279Z,51.72
2023-01-19T02:26:21.986Z,50.83
2023-01-19T02:28:53.362Z,55.63
2023-01-19T02:31:21.453Z,50.13
2023-01-19T02:33:50.132Z,47.17
2023-01-19T02:36:19.166Z,46.88
2023-01-19T02:38:49.847Z,46.05
2023-01-19T02:41:20.495Z,46.92
2023-01-19T02:43:49.781Z,53.22
2023-01-19T02:46:17.722Z,52.65
2023-01-19T02:48:45.911Z,46.30
2023-01-19T02:51:16.881Z,49.58
2023-01-19T02:54:09.627Z,49.15
2023-01-19T02:56:47.937Z,49.92
2023-01-19T02:59:23.448Z,54.10
2023-01-19T03:02:08.936Z,47.88
2023-01-19T03:04:45.821Z,56.25
2023-01-19T03:07:17.019Z,51.42
2023-01-19T03:09:52.857Z,44.63
2023-01-19T03:12:25.947Z,49.40
2023-01-19T03:14:56.954Z,47.20
2023-01-19T03:17:25.887Z,47.58
2023-01-19T03:19:55.205Z,44.13
2023-01-19T03:22:26.254Z,37.95
2023-01-19T03:24:57.584Z,31.92
2023-01-19T03:27:28.427Z,51.95
2023-01-19T03:29:59.055Z,50.28
2023-01-19T03:32:30.600Z,42.03
2023-01-19T03:35:01.506Z,49.40
2023-01-19T03:37:31.284Z,48.30
2023-01-19T03:40:01.427Z,50.97
2023-01-19T03:42:29.930Z,42.75
2023-01-19T03:44:58.644Z,44.78
2023-01-19T03:47:26.885Z,52.40
2023-01-19T03:49:55.653Z,40.85
2023-01-19T03:52:30.377Z,41.50
2023-01-19T03:54:59.866Z,41.92
2023-01-19T03:57:27.762Z,42.05
2023-01-19T03:59:56.991Z,40.58
2023-01-19T04:02:25.199Z,35.17
2023-01-19T04:04:53.440Z,37.67
2023-01-19T04:07:21.390Z,39.03
2023-01-19T04:09:49.592Z,37.65
2023-01-19T04:12:18.823Z,35.35
2023-01-19T04:14:47.522Z,38.50
2023-01-19T04:17:16.047Z,37.15
2023-01-19T04:19:45.139Z,27.10
2023-01-19T04:22:13.035Z,30.73
2023-01-19T04:24:41.370Z,33.90
2023-01-19T04:27:09.277Z,27.48
2023-01-19T04:29:38.785Z,32.45
2023-01-19T04:32:07.050Z,22.63
2023-01-19T04:34:35.347Z,23.27
2023-01-19T04:37:03.284Z,23.02
2023-01-19T04:39:31.713Z,29.33
2023-01-19T04:42:00.779Z,28.88
2023-01-19T04:44:29.113Z,27.48
2023-01-19T04:46:58.550Z,25.83
2023-01-19T04:49:26.737Z,36.80
2023-01-19T04:51:55.096Z,28.58
2023-01-19T04:54:23.784Z,23.02
2023-01-19T04:56:51.846Z,22.80
2023-01-19T04:59:21.480Z,17.27
2023-01-19T05:01:49.729Z,24.30
2023-01-19T05:04:19.471Z,19.48
2023-01-19T05:06:47.420Z,21.17
2023-01-19T05:09:15.853Z,21.02
2023-01-19T05:11:43.808Z,19.23
2023-01-19T05:14:12.015Z,21.48
2023-01-19T05:16:39.953Z,30.40
2023-01-19T05:19:08.207Z,26.80
2023-01-19T05:21:37.569Z,24.55
2023-01-19T05:24:06.106Z,22.42
2023-01-19T05:26:34.140Z,38.30
2023-01-19T05:29:02.385Z,46.55
2023-01-19T05:31:30.400Z,52.20
2023-01-19T05:33:58.795Z,45.13
2023-01-19T05:36:27.114Z,42.03
2023-01-19T05:38:56.689Z,52.35
2023-01-19T05:41:24.813Z,56.30
2023-01-19T05:43:53.046Z,66.85
2023-01-19T05:46:21.057Z,68.63
2023-01-19T05:48:49.238Z,76.63
2023-01-19T05:51:17.361Z,69.05
2023-01-19T05:53:45.857Z,66.68
2023-01-19T05:56:15.126Z,72.00
2023-01-19T05:58:43.289Z,78.55
2023-01-19T06:01:11.641Z,67.15
2023-01-19T06:03:40.904Z,64.93
2023-01-19T06:06:09.175Z,74.80
2023-01-19T06:08:37.586Z,69.47
2023-01-19T06:11:07.382Z,63.33
2023-01-19T06:13:37.055Z,74.38
2023-01-19T06:16:05.190Z,54.65
2023-01-19T06:18:33.436Z,53.70
2023-01-19T06:21:04.673Z,47.75
2023-01-19T06:23:33.652Z,56.35
2023-01-19T06:26:01.870Z,64.18
2023-01-19T06:28:30.157Z,65.70
2023-01-19T06:30:59.595Z,77.20
2023-01-19T06:33:28.865Z,81.57
2023-01-19T06:35:57.351Z,77.57
2023-01-19T06:38:26.228Z,78.78
2023-01-19T06:40:55.354Z,69.47
2023-01-19T06:43:23.690Z,77.68
2023-01-19T06:45:51.999Z,77.78
2023-01-19T06:48:21.907Z,80.43
2023-01-19T06:50:49.896Z,86.38
2023-01-19T06:53:20.687Z,87.82
2023-01-19T06:55:48.628Z,80.90
2023-01-19T06:58:16.890Z,74.78
2023-01-19T07:00:44.945Z,73.40
2023-01-19T07:03:21.450Z,60.85
2023-01-19T07:05:52.806Z,66.90
2023-01-19T07:08:21.119Z,70.18
2023-01-19T07:11:25.880Z,52.63
2023-01-19T07:13:39.025Z,53.92
2023-01-19T07:16:08.340Z,71.88
2023-01-19T07:18:38.213Z,62.42
2023-01-19T07:21:06.999Z,55.47
2023-01-19T07:23:35.858Z,73.72
2023-01-19T07:26:03.780Z,84.43
2023-01-19T07:28:32.912Z,65.88
2023-01-19T07:31:01.005Z,59.47
2023-01-19T07:33:29.826Z,80.28
2023-01-19T07:35:59.199Z,76.85
2023-01-19T07:38:27.510Z,94.70
2023-01-19T07:41:01.658Z,100.63
2023-01-19T07:43:29.922Z,128.73
2023-01-19T07:45:58.209Z,113.47
2023-01-19T07:48:26.459Z,106.55
2023-01-19T07:50:54.810Z,92.65
2023-01-19T07:53:24.810Z,116.97
2023-01-19T07:55:56.432Z,122.38
2023-01-19T07:58:24.727Z,107.53
2023-01-19T08:00:52.911Z,88.82
2023-01-19T08:03:21.223Z,84.15
2023-01-19T08:05:51.550Z,110.13
2023-01-19T08:08:20.141Z,81.88
2023-01-19T08:10:52.590Z,99.47
2023-01-19T08:13:20.821Z,59.67
2023-01-19T08:15:51.189Z,56.20
2023-01-19T08:18:19.873Z,64.68
2023-01-19T08:20:47.927Z,69.80
2023-01-19T08:23:17.981Z,67.75
2023-01-19T08:25:46.166Z,63.10
2023-01-19T08:28:17.610Z,58.65
2023-01-19T08:30:46.218Z,67.93
2023-01-19T08:33:14.859Z,93.57
2023-01-19T08:35:44.310Z,170.38
2023-01-19T08:38:12.546Z,160.30
2023-01-19T08:40:42.022Z,232.15
2023-01-19T08:43:11.779Z,386.27
2023-01-19T08:45:46.489Z,577.35
2023-01-19T08:48:15.210Z,305.73
2023-01-19T08:50:43.197Z,217.07
2023-01-19T08:53:11.566Z,150.98
2023-01-19T08:55:39.710Z,144.35
2023-01-19T08:58:08.940Z,336.70
2023-01-19T09:00:38.737Z,229.48
2023-01-19T09:03:09.656Z,143.23
2023-01-19T09:05:38.743Z,241.45
2023-01-19T09:08:09.330Z,131.55
2023-01-19T09:10:39.060Z,178.00
2023-01-19T09:13:10.821Z,190.23
2023-01-19T09:15:39.272Z,241.20
2023-01-19T09:18:13.457Z,250.75
2023-01-19T09:20:42.651Z,436.05
2023-01-19T09:23:11.685Z,497.65
2023-01-19T09:25:39.604Z,601.03
2023-01-19T09:28:09.449Z,429.73
2023-01-19T09:30:38.531Z,418.75
2023-01-19T09:33:11.061Z,668.90
2023-01-19T09:38:08.817Z,655.47
2023-01-19T09:40:37.787Z,819.47
2023-01-19T09:43:14.152Z,582.58
2023-01-19T09:45:50.821Z,654.03
2023-01-19T09:48:29.527Z,453.75
2023-01-19T09:50:59.742Z,672.95
2023-01-19T09:53:39.589Z,556.83
2023-01-19T09:56:12.094Z,659.28
2023-01-19T09:58:41.464Z,553.92
2023-01-19T10:01:28.967Z,707.60
2023-01-19T10:04:21.138Z,937.53
2023-01-19T10:06:49.484Z,755.38
2023-01-19T10:09:22.470Z,643.13
2023-01-19T10:11:54.417Z,766.30
2023-01-19T10:14:26.925Z,586.65
2023-01-19T10:17:02.262Z,549.67
2023-01-19T10:19:37.808Z,591.70
2023-01-19T10:22:13.218Z,830.15
2023-01-19T10:24:43.674Z,530.20
2023-01-19T10:27:17.869Z,621.72
2023-01-19T10:29:46.674Z,574.88
2023-01-19T10:32:17.338Z,687.80
2023-01-19T10:34:47.373Z,657.85
2023-01-19T10:37:20.086Z,859.72
2023-01-19T10:39:53.481Z,719.92
2023-01-19T10:42:21.927Z,579.60
2023-01-19T10:44:50.713Z,655.63
2023-01-19T10:47:20.227Z,643.90
2023-01-19T10:49:50.224Z,584.00
2023-01-19T10:52:24.559Z,637.38
2023-01-19T10:54:52.820Z,820.10
2023-01-19T10:57:27.981Z,835.90
2023-01-19T10:59:56.172Z,657.58
2023-01-19T11:02:26.958Z,535.22
2023-01-19T11:04:58.728Z,606.63
2023-01-19T11:07:29.706Z,1009.20
2023-01-19T11:10:33.347Z,983.97
2023-01-19T11:13:04.153Z,846.65
2023-01-19T11:15:37.450Z,860.15
2023-01-19T11:18:06.722Z,798.40
2023-01-19T11:20:44.250Z,653.25
2023-01-19T11:23:23.395Z,920.13
2023-01-19T11:25:53.097Z,742.67
2023-01-19T11:28:25.695Z,777.47
2023-01-19T11:30:58.665Z,558.67
2023-01-19T11:33:29.459Z,916.47
2023-01-19T11:36:06.347Z,675.90
2023-01-19T11:38:43.432Z,613.33
2023-01-19T11:41:18.606Z,1016.83
2023-01-19T11:43:49.291Z,617.53
2023-01-19T11:46:19.147Z,541.40
2023-01-19T11:48:52.849Z,333.67
2023-01-19T11:51:23.326Z,1152.88
2023-01-19T11:53:53.891Z,617.28
2023-01-19T11:56:24.793Z,646.47
2023-01-19T11:58:52.880Z,567.42
2023-01-19T12:01:24.723Z,808.65
2023-01-19T12:03:56.427Z,586.10
2023-01-19T12:06:29.154Z,897.00
2023-01-19T12:08:59.728Z,680.58
2023-01-19T12:11:32.040Z,349.45
2023-01-19T12:14:01.439Z,557.75
2023-01-19T12:16:31.314Z,498.63
2023-01-19T12:19:01.497Z,577.65
2023-01-19T12:21:31.171Z,521.55
2023-01-19T12:24:07.162Z,363.58
2023-01-19T12:26:38.574Z,488.00
2023-01-19T12:29:12.019Z,323.02
2023-01-19T12:31:42.797Z,489.13
2023-01-19T12:34:36.002Z,380.00
2023-01-19T12:37:08.003Z,331.52
2023-01-19T12:39:36.423Z,522.90
2023-01-19T12:42:07.546Z,404.98
2023-01-19T12:44:35.797Z,448.92
2023-01-19T12:47:21.029Z,406.48
2023-01-19T12:49:51.428Z,490.13
2023-01-19T12:52:26.682Z,494.98
2023-01-19T12:55:21.601Z,556.03
2023-01-19T12:57:56.449Z,584.53
2023-01-19T13:00:38.622Z,482.50
2023-01-19T13:03:48.349Z,443.92
2023-01-19T13:06:16.479Z,736.28
2023-01-19T13:09:00.220Z,521.33
2023-01-19T13:11:33.310Z,926.97
2023-01-19T13:14:35.227Z,608.45
2023-01-19T13:17:26.889Z,638.35
2023-01-19T13:20:02.941Z,692.65
2023-01-19T13:23:19.201Z,789.28
2023-01-19T13:25:54.385Z,663.80
2023-01-19T13:28:30.196Z,847.88
2023-01-19T13:31:02.502Z,781.40
2023-01-19T13:33:40.730Z,656.20
2023-01-19T13:36:20.737Z,1098.10
2023-01-19T13:38:49.313Z,968.65
2023-01-19T13:41:24.663Z,838.00
2023-01-19T13:43:58.321Z,982.97
2023-01-19T13:46:27.852Z,688.28
2023-01-19T13:48:57.288Z,708.58
2023-01-19T13:51:25.485Z,580.10
2023-01-19T13:53:57.683Z,603.38
2023-01-19T13:59:09.844Z,384.73
2023-01-19T14:01:39.711Z,434.30
2023-01-19T14:04:28.621Z,502.83
2023-01-19T14:06:58.629Z,320.55
2023-01-19T14:09:26.533Z,371.55
2023-01-19T14:12:13.912Z,638.25
2023-01-19T14:14:42.638Z,627.42
2023-01-19T14:17:25.421Z,897.92
2023-01-19T14:19:55.084Z,657.13
2023-01-19T14:22:38.780Z,633.90
2023-01-19T14:25:31.882Z,482.75
2023-01-19T14:28:38.477Z,774.60
2023-01-19T14:31:20.791Z,705.05
2023-01-19T14:33:50.384Z,716.40
2023-01-19T14:36:30.478Z,748.20
2023-01-19T14:39:00.614Z,793.33
2023-01-19T14:41:33.233Z,486.10
2023-01-19T14:44:03.174Z,636.08
2023-01-19T14:46:31.333Z,937.70
2023-01-19T14:49:02.836Z,1045.05
2023-01-19T14:51:31.531Z,659.85
2023-01-19T14:54:01.219Z,654.90
2023-01-19T14:56:31.320Z,422.30
2023-01-19T14:59:01.070Z,535.42
2023-01-19T15:01:31.802Z,380.70
2023-01-19T15:04:00.164Z,384.80
2023-01-19T15:06:28.284Z,386.60
2023-01-19T15:08:56.767Z,416.05
2023-01-19T15:11:27.352Z,364.92
2023-01-19T15:13:56.115Z,431.45
2023-01-19T15:16:24.576Z,542.30
2023-01-19T15:18:54.231Z,395.35
2023-01-19T15:21:23.629Z,256.40
2023-01-19T15:23:52.264Z,449.00
2023-01-19T15:26:21.610Z,684.67
2023-01-19T15:28:51.564Z,450.08
2023-01-19T15:31:21.763Z,355.40
2023-01-19T15:33:50.580Z,373.40
2023-01-19T15:36:21.844Z,517.42
2023-01-19T15:41:24.002Z,268.45
2023-01-19T15:43:52.570Z,351.27
2023-01-19T15:46:21.609Z,470.65
2023-01-19T15:48:50.563Z,492.35
2023-01-19T15:51:22.407Z,525.47
2023-01-19T15:53:50.844Z,323.80
2023-01-19T15:56:21.059Z,271.65
2023-01-19T15:58:49.418Z,269.90
2023-01-19T16:01:19.175Z,316.48
2023-01-19T16:03:47.587Z,458.60
2023-01-19T16:06:16.522Z,419.15
2023-01-19T16:08:46.193Z,265.88
2023-01-19T16:11:15.323Z,237.82
2023-01-19T16:13:46.179Z,227.57
2023-01-19T16:16:16.992Z,254.60
2023-01-19T16:18:45.897Z,501.42
2023-01-19T16:21:14.105Z,289.27
2023-01-19T16:23:42.519Z,389.48
2023-01-19T16:26:29.040Z,345.48
2023-01-19T16:28:58.639Z,233.50
2023-01-19T16:31:27.109Z,447.20
2023-01-19T16:33:55.431Z,279.08
2023-01-19T16:36:26.265Z,324.15
2023-01-19T16:38:54.818Z,339.38
2023-01-19T16:41:24.089Z,292.48
2023-01-19T16:43:53.705Z,348.80
2023-01-19T16:46:23.301Z,357.67
2023-01-19T16:48:51.991Z,532.28
2023-01-19T16:51:20.523Z,263.40
2023-01-19T16:53:50.727Z,322.48
2023-01-19T16:56:18.938Z,623.38
2023-01-19T16:58:48.686Z,262.33
2023-01-19T17:01:20.074Z,255.93
2023-01-19T17:03:48.940Z,293.50
2023-01-19T17:06:20.093Z,328.00
2023-01-19T17:08:48.850Z,206.07
2023-01-19T17:11:20.555Z,287.45
2023-01-19T17:13:50.877Z,251.10
2023-01-19T17:16:18.866Z,230.52
2023-01-19T17:18:47.278Z,214.60
2023-01-19T17:21:17.787Z,204.75
2023-01-19T17:23:47.499Z,245.70
2023-01-19T17:26:15.953Z,243.00
2023-01-19T17:28:44.446Z,222.93
2023-01-19T17:31:15.224Z,200.60
2023-01-19T17:33:45.165Z,200.85
2023-01-19T17:36:14.602Z,189.95
2023-01-19T17:38:43.206Z,197.38
2023-01-19T17:41:14.880Z,195.38
2023-01-19T17:43:43.273Z,217.15
2023-01-19T17:46:13.096Z,196.10
2023-01-19T17:48:41.739Z,197.95
2023-01-19T17:51:11.750Z,181.02
2023-01-19T17:53:41.865Z,197.75
2023-01-19T17:56:12.375Z,189.18
2023-01-19T17:58:41.602Z,184.60
2023-01-19T18:01:10.541Z,199.18
2023-01-19T18:03:40.632Z,196.95
2023-01-19T18:06:09.475Z,206.57
2023-01-19T18:08:39.856Z,185.95
2023-01-19T18:11:08.837Z,196.88
2023-01-19T18:13:37.549Z,214.85
2023-01-19T18:16:07.692Z,187.43
2023-01-19T18:18:36.517Z,166.32
2023-01-19T18:21:07.574Z,169.52
2023-01-19T18:23:36.487Z,180.07
2023-01-19T18:26:06.582Z,191.88
2023-01-19T18:28:35.034Z,167.82
2023-01-19T18:31:03.456Z,194.73
2023-01-19T18:33:33.983Z,183.63
2023-01-19T18:36:02.488Z,186.88
2023-01-19T18:38:32.376Z,197.02
2023-01-19T18:41:04.257Z,193.70
2023-01-19T18:43:32.669Z,204.80
2023-01-19T18:46:00.776Z,182.98
2023-01-19T18:48:29.287Z,190.05
2023-01-19T18:50:57.486Z,166.07
2023-01-19T18:53:25.708Z,160.90
2023-01-19T18:55:56.583Z,169.40
2023-01-19T18:58:28.448Z,170.35
2023-01-19T19:00:56.873Z,167.20
2023-01-19T19:03:25.489Z,161.00
2023-01-19T19:05:53.893Z,162.10
2023-01-19T19:08:22.124Z,168.43
2023-01-19T19:10:50.234Z,165.05
2023-01-19T19:13:21.789Z,146.50
2023-01-19T19:15:50.432Z,168.88
2023-01-19T19:18:18.845Z,166.52
2023-01-19T19:20:46.905Z,151.05
2023-01-19T19:23:15.171Z,141.25
2023-01-19T19:25:43.061Z,133.60
2023-01-19T19:28:11.387Z,148.77
2023-01-19T19:30:41.387Z,157.68
2023-01-19T19:33:09.570Z,159.52
2023-01-19T19:35:37.555Z,156.23
2023-01-19T19:38:05.737Z,165.20
2023-01-19T19:40:33.661Z,149.60
2023-01-19T19:43:01.848Z,164.50
2023-01-19T19:45:30.349Z,150.90
2023-01-19T19:47:59.961Z,155.63
2023-01-19T19:50:28.202Z,161.57
2023-01-19T19:52:58.710Z,153.23
2023-01-19T19:55:26.778Z,142.45
2023-01-19T19:57:55.143Z,120.40
2023-01-19T20:00:23.278Z,139.10
2023-01-19T20:02:51.700Z,134.20
2023-01-19T20:05:21.369Z,121.32
2023-01-19T20:07:49.544Z,108.53
2023-01-19T20:10:18.225Z,111.13
2023-01-19T20:12:46.582Z,116.78
2023-01-19T20:15:14.629Z,116.40
2023-01-19T20:17:58.151Z,103.85
2023-01-19T20:20:28.874Z,109.97
2023-01-19T20:22:58.521Z,109.75
2023-01-19T20:25:27.122Z,118.18
2023-01-19T20:27:56.934Z,125.53
2023-01-19T20:30:24.905Z,109.72
2023-01-19T20:32:53.134Z,109.97
2023-01-19T20:35:21.286Z,118.35
2023-01-19T20:37:50.937Z,116.50
2023-01-19T20:40:18.934Z,112.75
2023-01-19T20:42:47.249Z,125.82
2023-01-19T20:45:15.374Z,125.05
2023-01-19T20:47:43.666Z,126.13
2023-01-19T20:50:12.904Z,136.55
2023-01-19T20:52:41.310Z,135.65
2023-01-19T20:55:13.177Z,143.88
2023-01-19T20:57:41.717Z,144.73
2023-01-19T21:00:11.081Z,152.82
2023-01-19T21:02:39.375Z,149.80
2023-01-19T21:05:09.026Z,149.30
2023-01-19T21:07:37.256Z,167.20
2023-01-19T21:10:05.744Z,186.57
2023-01-19T21:12:35.710Z,176.73
2023-01-19T21:15:03.665Z,216.30
2023-01-19T21:17:32.270Z,184.55
2023-01-19T21:20:00.449Z,193.40
2023-01-19T21:22:28.672Z,184.85
2023-01-19T21:24:56.786Z,186.13
2023-01-19T21:27:25.159Z,158.88
2023-01-19T21:29:54.439Z,181.10
2023-01-19T21:32:23.018Z,186.82
2023-01-19T21:34:51.009Z,174.57
2023-01-19T21:37:19.257Z,171.40
2023-01-19T21:39:47.515Z,160.57
2023-01-19T21:42:15.893Z,165.48
2023-01-19T21:44:43.802Z,176.55
2023-01-19T21:47:13.660Z,163.30
2023-01-19T21:49:41.569Z,172.07
2023-01-19T21:52:09.801Z,164.80
2023-01-19T21:54:38.189Z,157.50
2023-01-19T21:57:06.557Z,147.43
2023-01-19T21:59:34.493Z,156.15
2023-01-19T22:02:03.023Z,157.07
2023-01-19T22:04:32.632Z,160.00
2023-01-19T22:07:00.883Z,152.15
2023-01-19T22:09:28.816Z,142.95
2023-01-19T22:11:58.669Z,155.27
2023-01-19T22:14:26.706Z,142.80
2023-01-19T22:16:55.065Z,148.95
2023-01-19T22:19:23.281Z,142.23
2023-01-19T22:21:52.818Z,149.02
2023-01-19T22:24:21.011Z,143.77
2023-01-19T22:26:49.338Z,143.43
2023-01-19T22:29:17.257Z,140.70
2023-01-19T22:31:45.793Z,148.38
2023-01-19T22:34:15.792Z,151.90
2023-01-19T22:36:44.379Z,132.40
2023-01-19T22:39:14.681Z,133.05
2023-01-19T22:41:44.825Z,131.32
2023-01-19T22:44:14.584Z,132.00
2023-01-19T22:46:43.282Z,122.30
2023-01-19T22:49:13.745Z,131.88
2023-01-19T22:51:42.326Z,130.20
2023-01-19T22:54:10.825Z,124.25
2023-01-19T22:56:41.799Z,132.75
2023-01-19T22:59:09.882Z,126.15
2023-01-19T23:01:40.094Z,122.30
2023-01-19T23:04:09.967Z,122.95
2023-01-19T23:06:38.593Z,120.47
2023-01-19T23:09:08.701Z,123.45
2023-01-19T23:11:39.048Z,119.07
2023-01-19T23:14:11.470Z,124.43
2023-01-19T23:16:39.715Z,130.15
2023-01-19T23:19:07.980Z,131.45
2023-01-19T23:21:36.915Z,120.65
2023-01-19T23:24:05.656Z,113.32
2023-01-19T23:26:38.095Z,131.43
2023-01-19T23:29:11.214Z,133.48
2023-01-19T23:31:40.828Z,135.15
2023-01-19T23:34:10.721Z,113.38
2023-01-19T23:36:40.435Z,125.15
2023-01-19T23:39:10.995Z,131.80
2023-01-19T23:41:39.554Z,120.03
2023-01-19T23:44:09.077Z,131.15
2023-01-19T23:46:37.572Z,119.00
2023-01-19T23:49:05.641Z,111.55
2023-01-19T23:51:35.783Z,106.10
2023-01-19T23:54:04.066Z,101.60
2023-01-19T23:56:33.825Z,98.43
2023-01-19T23:59:03.346Z,104.45
